sensor_id;sensor_type;location;lat;lon;timestamp;temperature;humidity
148;DHT22;142;50.652;12.216;2022-10-31T00:00:14;11.90;63.80
148;DHT22;142;50.652;12.216;2022-10-31T00:02:42;11.90;63.80
148;DHT22;142;50.652;12.216;2022-10-31T00:05:10;11.80;63.80
148;DHT22;142;50.652;12.216;2022-10-31T00:07:37;11.80;63.90
148;DHT22;142;50.652;12.216;2022-10-31T00:10:06;11.80;63.80
148;DHT22;142;50.652;12.216;2022-10-31T00:12:35;11.70;63.70
148;DHT22;142;50.652;12.216;2022-10-31T00:15:02;11.70;63.80
148;DHT22;142;50.652;12.216;2022-10-31T00:17:29;11.70;63.80
148;DHT22;142;50.652;12.216;2022-10-31T00:19:56;11.60;63.80
148;DHT22;142;50.652;12.216;2022-10-31T00:22:25;11.60;63.90
148;DHT22;142;50.652;12.216;2022-10-31T00:24:52;11.60;63.90
148;DHT22;142;50.652;12.216;2022-10-31T00:27:19;11.60;64.00
148;DHT22;142;50.652;12.216;2022-10-31T00:29:47;11.60;63.90
148;DHT22;142;50.652;12.216;2022-10-31T00:32:15;11.60;64.00
148;DHT22;142;50.652;12.216;2022-10-31T00:34:42;11.60;64.00
148;DHT22;142;50.652;12.216;2022-10-31T00:37:08;11.60;63.90
148;DHT22;142;50.652;12.216;2022-10-31T00:39:36;11.50;63.90
148;DHT22;142;50.652;12.216;2022-10-31T00:42:03;11.50;63.90
148;DHT22;142;50.652;12.216;2022-10-31T00:44:30;11.50;64.00
148;DHT22;142;50.652;12.216;2022-10-31T00:46:59;11.40;63.90
148;DHT22;142;50.652;12.216;2022-10-31T00:49:26;11.40;64.00
148;DHT22;142;50.652;12.216;2022-10-31T00:51:53;11.40;64.10
148;DHT22;142;50.652;12.216;2022-10-31T00:54:20;11.30;64.00
148;DHT22;142;50.652;12.216;2022-10-31T00:56:47;11.30;64.10
148;DHT22;142;50.652;12.216;2022-10-31T00:59:14;11.30;64.10
148;DHT22;142;50.652;12.216;2022-10-31T01:01:41;11.30;64.10
148;DHT22;142;50.652;12.216;2022-10-31T01:04:10;11.20;64.10
148;DHT22;142;50.652;12.216;2022-10-31T01:06:37;11.20;64.20
148;DHT22;142;50.652;12.216;2022-10-31T01:09:04;11.20;64.20
148;DHT22;142;50.652;12.216;2022-10-31T01:11:31;11.20;64.10
148;DHT22;142;50.652;12.216;2022-10-31T01:13:58;11.10;64.10
148;DHT22;142;50.652;12.216;2022-10-31T01:16:26;11.00;64.00
148;DHT22;142;50.652;12.216;2022-10-31T01:18:55;11.00;64.20
148;DHT22;142;50.652;12.216;2022-10-31T01:21:24;11.00;64.20
148;DHT22;142;50.652;12.216;2022-10-31T01:23:53;10.90;64.20
148;DHT22;142;50.652;12.216;2022-10-31T01:26:22;10.90;64.30
148;DHT22;142;50.652;12.216;2022-10-31T01:28:51;10.90;64.40
148;DHT22;142;50.652;12.216;2022-10-31T01:31:21;10.90;64.40
148;DHT22;142;50.652;12.216;2022-10-31T01:33:48;10.90;64.40
148;DHT22;142;50.652;12.216;2022-10-31T01:36:18;10.90;64.50
148;DHT22;142;50.652;12.216;2022-10-31T01:38:47;10.90;64.40
148;DHT22;142;50.652;12.216;2022-10-31T01:41:17;10.90;64.40
148;DHT22;142;50.652;12.216;2022-10-31T01:43:47;10.90;64.40
148;DHT22;142;50.652;12.216;2022-10-31T01:46:17;10.90;64.40
148;DHT22;142;50.652;12.216;2022-10-31T01:48:46;10.90;64.40
148;DHT22;142;50.652;12.216;2022-10-31T01:51:15;10.80;64.40
148;DHT22;142;50.652;12.216;2022-10-31T01:53:43;10.80;64.40
148;DHT22;142;50.652;12.216;2022-10-31T01:56:14;10.80;64.40
148;DHT22;142;50.652;12.216;2022-10-31T01:58:45;10.80;64.30
148;DHT22;142;50.652;12.216;2022-10-31T02:01:14;10.70;64.30
148;DHT22;142;50.652;12.216;2022-10-31T02:03:43;10.80;64.40
148;DHT22;142;50.652;12.216;2022-10-31T02:06:13;10.70;64.40
148;DHT22;142;50.652;12.216;2022-10-31T02:08:46;10.70;64.40
148;DHT22;142;50.652;12.216;2022-10-31T02:11:14;10.70;64.40
148;DHT22;142;50.652;12.216;2022-10-31T02:13:42;10.70;64.40
148;DHT22;142;50.652;12.216;2022-10-31T02:16:09;10.70;64.30
148;DHT22;142;50.652;12.216;2022-10-31T02:18:36;10.70;64.30
148;DHT22;142;50.652;12.216;2022-10-31T02:21:10;10.60;64.30
148;DHT22;142;50.652;12.216;2022-10-31T02:24:19;10.60;64.40
148;DHT22;142;50.652;12.216;2022-10-31T02:27:06;10.60;64.40
148;DHT22;142;50.652;12.216;2022-10-31T02:29:55;10.50;64.20
148;DHT22;142;50.652;12.216;2022-10-31T02:32:37;10.50;64.30
148;DHT22;142;50.652;12.216;2022-10-31T02:35:11;10.40;64.50
148;DHT22;142;50.652;12.216;2022-10-31T02:37:47;10.30;64.20
148;DHT22;142;50.652;12.216;2022-10-31T02:40:21;10.30;64.50
148;DHT22;142;50.652;12.216;2022-10-31T02:42:54;10.30;64.50
148;DHT22;142;50.652;12.216;2022-10-31T02:45:27;10.30;64.70
148;DHT22;142;50.652;12.216;2022-10-31T02:48:00;10.30;64.80
148;DHT22;142;50.652;12.216;2022-10-31T02:50:31;10.30;64.90
148;DHT22;142;50.652;12.216;2022-10-31T02:53:00;10.40;64.90
148;DHT22;142;50.652;12.216;2022-10-31T02:55:51;10.30;64.80
148;DHT22;142;50.652;12.216;2022-10-31T02:58:21;10.30;64.80
148;DHT22;142;50.652;12.216;2022-10-31T03:01:05;10.30;64.70
148;DHT22;142;50.652;12.216;2022-10-31T03:03:42;10.30;64.80
148;DHT22;142;50.652;12.216;2022-10-31T03:06:16;10.30;64.70
148;DHT22;142;50.652;12.216;2022-10-31T03:08:50;10.30;64.60
148;DHT22;142;50.652;12.216;2022-10-31T03:11:23;10.20;64.60
148;DHT22;142;50.652;12.216;2022-10-31T03:13:59;10.20;64.70
148;DHT22;142;50.652;12.216;2022-10-31T03:16:32;10.20;64.80
148;DHT22;142;50.652;12.216;2022-10-31T03:19:06;10.20;64.60
148;DHT22;142;50.652;12.216;2022-10-31T03:21:39;10.20;64.70
148;DHT22;142;50.652;12.216;2022-10-31T03:24:09;10.20;64.70
148;DHT22;142;50.652;12.216;2022-10-31T03:26:41;10.20;64.60
148;DHT22;142;50.652;12.216;2022-10-31T03:29:13;10.10;64.70
148;DHT22;142;50.652;12.216;2022-10-31T03:31:46;10.20;64.90
148;DHT22;142;50.652;12.216;2022-10-31T03:34:17;10.10;65.00
148;DHT22;142;50.652;12.216;2022-10-31T03:36:47;10.10;65.00
148;DHT22;142;50.652;12.216;2022-10-31T03:39:18;10.10;65.10
148;DHT22;142;50.652;12.216;2022-10-31T03:41:49;10.10;65.10
148;DHT22;142;50.652;12.216;2022-10-31T03:44:19;10.10;65.10
148;DHT22;142;50.652;12.216;2022-10-31T03:46:47;10.10;65.10
148;DHT22;142;50.652;12.216;2022-10-31T03:49:17;10.10;65.10
148;DHT22;142;50.652;12.216;2022-10-31T03:51:47;10.10;65.00
148;DHT22;142;50.652;12.216;2022-10-31T03:54:23;10.10;65.00
148;DHT22;142;50.652;12.216;2022-10-31T03:56:55;10.00;65.10
148;DHT22;142;50.652;12.216;2022-10-31T03:59:26;10.00;65.10
148;DHT22;142;50.652;12.216;2022-10-31T04:01:59;10.00;65.00
148;DHT22;142;50.652;12.216;2022-10-31T04:04:29;10.00;64.90
148;DHT22;142;50.652;12.216;2022-10-31T04:06:58;10.00;64.90
148;DHT22;142;50.652;12.216;2022-10-31T04:09:28;9.90;64.80
148;DHT22;142;50.652;12.216;2022-10-31T04:11:58;9.90;64.70
148;DHT22;142;50.652;12.216;2022-10-31T04:14:27;9.90;64.70
148;DHT22;142;50.652;12.216;2022-10-31T04:16:57;9.90;64.80
148;DHT22;142;50.652;12.216;2022-10-31T04:19:24;9.80;64.80
148;DHT22;142;50.652;12.216;2022-10-31T04:21:52;9.80;64.60
148;DHT22;142;50.652;12.216;2022-10-31T04:24:19;9.80;64.60
148;DHT22;142;50.652;12.216;2022-10-31T04:26:47;9.80;64.80
148;DHT22;142;50.652;12.216;2022-10-31T04:29:13;9.80;64.90
148;DHT22;142;50.652;12.216;2022-10-31T04:31:40;9.70;64.60
148;DHT22;142;50.652;12.216;2022-10-31T04:34:08;9.60;64.70
148;DHT22;142;50.652;12.216;2022-10-31T04:36:34;9.60;64.80
148;DHT22;142;50.652;12.216;2022-10-31T04:39:03;9.70;64.90
148;DHT22;142;50.652;12.216;2022-10-31T04:41:30;9.60;64.80
148;DHT22;142;50.652;12.216;2022-10-31T04:43:57;9.60;64.90
148;DHT22;142;50.652;12.216;2022-10-31T04:46:24;9.60;64.90
148;DHT22;142;50.652;12.216;2022-10-31T04:48:51;9.60;65.00
148;DHT22;142;50.652;12.216;2022-10-31T04:51:18;9.60;64.90
148;DHT22;142;50.652;12.216;2022-10-31T04:53:45;9.50;64.80
148;DHT22;142;50.652;12.216;2022-10-31T04:56:14;9.50;64.80
148;DHT22;142;50.652;12.216;2022-10-31T04:58:41;9.50;64.70
148;DHT22;142;50.652;12.216;2022-10-31T05:01:07;9.50;64.80
148;DHT22;142;50.652;12.216;2022-10-31T05:03:35;9.50;64.90
148;DHT22;142;50.652;12.216;2022-10-31T05:06:02;9.40;64.90
148;DHT22;142;50.652;12.216;2022-10-31T05:08:28;9.50;64.90
148;DHT22;142;50.652;12.216;2022-10-31T05:10:59;9.50;65.00
148;DHT22;142;50.652;12.216;2022-10-31T05:13:28;9.50;64.90
148;DHT22;142;50.652;12.216;2022-10-31T05:15:55;9.50;65.00
148;DHT22;142;50.652;12.216;2022-10-31T05:18:23;9.50;65.00
148;DHT22;142;50.652;12.216;2022-10-31T05:20:50;9.50;64.90
148;DHT22;142;50.652;12.216;2022-10-31T05:23:17;9.40;64.80
148;DHT22;142;50.652;12.216;2022-10-31T05:25:44;9.40;64.80
148;DHT22;142;50.652;12.216;2022-10-31T05:28:11;9.40;64.90
148;DHT22;142;50.652;12.216;2022-10-31T05:30:40;9.40;64.90
148;DHT22;142;50.652;12.216;2022-10-31T05:33:07;9.40;64.90
148;DHT22;142;50.652;12.216;2022-10-31T05:35:34;9.30;64.80
148;DHT22;142;50.652;12.216;2022-10-31T05:38:01;9.30;64.80
148;DHT22;142;50.652;12.216;2022-10-31T05:40:28;9.30;64.80
148;DHT22;142;50.652;12.216;2022-10-31T05:42:56;9.30;64.80
148;DHT22;142;50.652;12.216;2022-10-31T05:45:24;9.30;64.90
148;DHT22;142;50.652;12.216;2022-10-31T05:47:54;9.30;64.90
148;DHT22;142;50.652;12.216;2022-10-31T05:50:22;9.30;64.90
148;DHT22;142;50.652;12.216;2022-10-31T05:52:55;9.30;65.00
148;DHT22;142;50.652;12.216;2022-10-31T05:55:22;9.20;64.90
148;DHT22;142;50.652;12.216;2022-10-31T05:57:51;9.20;64.80
148;DHT22;142;50.652;12.216;2022-10-31T06:00:19;9.20;64.90
148;DHT22;142;50.652;12.216;2022-10-31T06:02:46;9.20;64.80
148;DHT22;142;50.652;12.216;2022-10-31T06:05:15;9.10;64.90
148;DHT22;142;50.652;12.216;2022-10-31T06:07:42;9.20;65.00
148;DHT22;142;50.652;12.216;2022-10-31T06:10:10;9.20;65.10
148;DHT22;142;50.652;12.216;2022-10-31T06:12:37;9.20;65.00
148;DHT22;142;50.652;12.216;2022-10-31T06:15:07;9.20;65.00
148;DHT22;142;50.652;12.216;2022-10-31T06:17:35;9.10;64.90
148;DHT22;142;50.652;12.216;2022-10-31T06:20:03;9.10;64.70
148;DHT22;142;50.652;12.216;2022-10-31T06:22:32;9.10;64.90
148;DHT22;142;50.652;12.216;2022-10-31T06:24:59;9.10;65.00
148;DHT22;142;50.652;12.216;2022-10-31T06:27:27;9.10;65.00
148;DHT22;142;50.652;12.216;2022-10-31T06:29:54;9.10;65.00
148;DHT22;142;50.652;12.216;2022-10-31T06:32:21;9.10;64.90
148;DHT22;142;50.652;12.216;2022-10-31T06:34:48;9.10;64.90
148;DHT22;142;50.652;12.216;2022-10-31T06:37:15;9.10;65.00
148;DHT22;142;50.652;12.216;2022-10-31T06:39:43;9.10;64.90
148;DHT22;142;50.652;12.216;2022-10-31T06:42:11;9.20;65.00
148;DHT22;142;50.652;12.216;2022-10-31T06:44:38;9.20;65.00
148;DHT22;142;50.652;12.216;2022-10-31T06:47:05;9.10;64.90
148;DHT22;142;50.652;12.216;2022-10-31T06:49:33;9.20;65.00
148;DHT22;142;50.652;12.216;2022-10-31T06:52:00;9.20;65.10
148;DHT22;142;50.652;12.216;2022-10-31T06:54:27;9.30;65.30
148;DHT22;142;50.652;12.216;2022-10-31T06:56:56;9.30;65.10
148;DHT22;142;50.652;12.216;2022-10-31T06:59:22;9.30;65.00
148;DHT22;142;50.652;12.216;2022-10-31T07:01:51;9.30;65.10
148;DHT22;142;50.652;12.216;2022-10-31T07:04:17;9.30;64.90
148;DHT22;142;50.652;12.216;2022-10-31T07:06:50;9.30;65.00
148;DHT22;142;50.652;12.216;2022-10-31T07:09:19;9.30;65.10
148;DHT22;142;50.652;12.216;2022-10-31T07:11:47;9.40;65.10
148;DHT22;142;50.652;12.216;2022-10-31T07:14:15;9.40;65.10
148;DHT22;142;50.652;12.216;2022-10-31T07:16:48;9.40;65.10
148;DHT22;142;50.652;12.216;2022-10-31T07:19:17;9.40;65.10
148;DHT22;142;50.652;12.216;2022-10-31T07:21:44;9.40;65.10
148;DHT22;142;50.652;12.216;2022-10-31T07:24:11;9.40;64.90
148;DHT22;142;50.652;12.216;2022-10-31T07:26:38;9.50;65.10
148;DHT22;142;50.652;12.216;2022-10-31T07:29:05;9.50;65.20
148;DHT22;142;50.652;12.216;2022-10-31T07:31:33;9.60;65.40
148;DHT22;142;50.652;12.216;2022-10-31T07:34:00;9.70;65.30
148;DHT22;142;50.652;12.216;2022-10-31T07:36:27;9.70;65.20
148;DHT22;142;50.652;12.216;2022-10-31T07:38:54;9.80;65.20
148;DHT22;142;50.652;12.216;2022-10-31T07:41:23;9.80;65.00
148;DHT22;142;50.652;12.216;2022-10-31T07:43:51;9.90;65.10
148;DHT22;142;50.652;12.216;2022-10-31T07:46:18;9.90;65.00
148;DHT22;142;50.652;12.216;2022-10-31T07:48:46;10.00;65.00
148;DHT22;142;50.652;12.216;2022-10-31T07:51:13;10.10;65.00
148;DHT22;142;50.652;12.216;2022-10-31T07:53:40;10.20;65.10
148;DHT22;142;50.652;12.216;2022-10-31T07:56:07;10.20;64.80
148;DHT22;142;50.652;12.216;2022-10-31T07:58:36;10.40;64.90
148;DHT22;142;50.652;12.216;2022-10-31T08:01:03;10.40;64.90
148;DHT22;142;50.652;12.216;2022-10-31T08:03:30;10.50;64.70
148;DHT22;142;50.652;12.216;2022-10-31T08:05:59;10.60;64.60
148;DHT22;142;50.652;12.216;2022-10-31T08:08:26;10.70;64.40
148;DHT22;142;50.652;12.216;2022-10-31T08:10:54;10.80;64.10
148;DHT22;142;50.652;12.216;2022-10-31T08:13:22;10.90;64.30
148;DHT22;142;50.652;12.216;2022-10-31T08:15:49;11.00;64.10
148;DHT22;142;50.652;12.216;2022-10-31T08:18:17;11.10;64.10
148;DHT22;142;50.652;12.216;2022-10-31T08:20:44;11.20;63.60
148;DHT22;142;50.652;12.216;2022-10-31T08:23:13;11.30;63.50
148;DHT22;142;50.652;12.216;2022-10-31T08:25:41;11.50;63.90
148;DHT22;142;50.652;12.216;2022-10-31T08:28:10;11.60;63.60
148;DHT22;142;50.652;12.216;2022-10-31T08:30:38;11.60;63.10
148;DHT22;142;50.652;12.216;2022-10-31T08:33:08;11.70;62.50
148;DHT22;142;50.652;12.216;2022-10-31T08:35:36;11.70;62.30
148;DHT22;142;50.652;12.216;2022-10-31T08:38:03;11.80;62.50
148;DHT22;142;50.652;12.216;2022-10-31T08:40:32;11.90;62.10
148;DHT22;142;50.652;12.216;2022-10-31T08:43:01;11.90;61.90
148;DHT22;142;50.652;12.216;2022-10-31T08:45:30;12.00;61.90
148;DHT22;142;50.652;12.216;2022-10-31T08:47:59;12.20;61.90
148;DHT22;142;50.652;12.216;2022-10-31T08:50:28;12.30;61.90
148;DHT22;142;50.652;12.216;2022-10-31T08:53:00;12.40;61.60
148;DHT22;142;50.652;12.216;2022-10-31T08:55:27;12.50;61.30
148;DHT22;142;50.652;12.216;2022-10-31T08:57:57;12.70;61.40
148;DHT22;142;50.652;12.216;2022-10-31T09:00:24;12.80;61.20
148;DHT22;142;50.652;12.216;2022-10-31T09:02:56;12.90;60.20
148;DHT22;142;50.652;12.216;2022-10-31T09:05:25;13.00;60.30
148;DHT22;142;50.652;12.216;2022-10-31T09:07:55;13.10;60.40
148;DHT22;142;50.652;12.216;2022-10-31T09:10:23;13.30;60.00
148;DHT22;142;50.652;12.216;2022-10-31T09:12:56;13.30;59.40
148;DHT22;142;50.652;12.216;2022-10-31T09:15:24;13.50;59.30
148;DHT22;142;50.652;12.216;2022-10-31T09:17:50;13.50;58.80
148;DHT22;142;50.652;12.216;2022-10-31T09:20:18;13.60;58.90
148;DHT22;142;50.652;12.216;2022-10-31T09:22:45;13.70;58.60
148;DHT22;142;50.652;12.216;2022-10-31T09:25:13;13.80;58.20
148;DHT22;142;50.652;12.216;2022-10-31T09:27:40;13.80;57.70
148;DHT22;142;50.652;12.216;2022-10-31T09:30:11;13.90;57.90
148;DHT22;142;50.652;12.216;2022-10-31T09:32:38;14.00;57.80
148;DHT22;142;50.652;12.216;2022-10-31T09:35:06;14.20;57.50
148;DHT22;142;50.652;12.216;2022-10-31T09:37:35;14.40;57.60
148;DHT22;142;50.652;12.216;2022-10-31T09:40:03;14.60;57.40
148;DHT22;142;50.652;12.216;2022-10-31T09:42:44;14.80;57.00
148;DHT22;142;50.652;12.216;2022-10-31T09:45:20;15.00;56.70
148;DHT22;142;50.652;12.216;2022-10-31T09:48:09;15.00;55.60
148;DHT22;142;50.652;12.216;2022-10-31T09:50:43;15.20;55.90
148;DHT22;142;50.652;12.216;2022-10-31T09:53:20;15.30;55.60
148;DHT22;142;50.652;12.216;2022-10-31T09:55:51;15.50;55.20
148;DHT22;142;50.652;12.216;2022-10-31T09:58:23;15.70;54.20
148;DHT22;142;50.652;12.216;2022-10-31T10:00:54;15.70;54.20
148;DHT22;142;50.652;12.216;2022-10-31T10:03:34;15.90;54.50
148;DHT22;142;50.652;12.216;2022-10-31T10:06:11;16.00;54.00
148;DHT22;142;50.652;12.216;2022-10-31T10:08:39;16.10;53.40
148;DHT22;142;50.652;12.216;2022-10-31T10:11:19;16.10;53.40
148;DHT22;142;50.652;12.216;2022-10-31T10:13:59;16.20;53.20
148;DHT22;142;50.652;12.216;2022-10-31T10:16:47;16.20;53.20
148;DHT22;142;50.652;12.216;2022-10-31T10:19:25;16.20;53.10
148;DHT22;142;50.652;12.216;2022-10-31T10:21:59;16.40;53.10
148;DHT22;142;50.652;12.216;2022-10-31T10:24:38;16.60;52.90
148;DHT22;142;50.652;12.216;2022-10-31T10:27:18;16.80;52.60
148;DHT22;142;50.652;12.216;2022-10-31T10:29:53;16.90;52.00
148;DHT22;142;50.652;12.216;2022-10-31T10:32:25;17.10;51.80
148;DHT22;142;50.652;12.216;2022-10-31T11:01:13;18.60;47.50
148;DHT22;142;50.652;12.216;2022-10-31T11:03:42;18.60;47.50
148;DHT22;142;50.652;12.216;2022-10-31T11:06:19;18.60;47.40
148;DHT22;142;50.652;12.216;2022-10-31T11:08:50;18.60;47.00
148;DHT22;142;50.652;12.216;2022-10-31T11:11:25;18.60;47.10
148;DHT22;142;50.652;12.216;2022-10-31T11:13:59;18.70;55.00
148;DHT22;142;50.652;12.216;2022-10-31T11:16:33;18.60;58.80
148;DHT22;142;50.652;12.216;2022-10-31T11:19:15;18.60;59.10
148;DHT22;142;50.652;12.216;2022-10-31T11:21:43;18.70;60.50
148;DHT22;142;50.652;12.216;2022-10-31T11:24:15;18.70;61.00
148;DHT22;142;50.652;12.216;2022-10-31T11:26:44;18.80;61.90
148;DHT22;142;50.652;12.216;2022-10-31T11:29:14;18.80;64.10
148;DHT22;142;50.652;12.216;2022-10-31T11:31:43;18.90;65.10
148;DHT22;142;50.652;12.216;2022-10-31T11:34:21;18.90;65.70
148;DHT22;142;50.652;12.216;2022-10-31T11:36:50;18.90;65.70
148;DHT22;142;50.652;12.216;2022-10-31T11:39:19;19.00;66.30
148;DHT22;142;50.652;12.216;2022-10-31T11:41:48;19.00;67.40
148;DHT22;142;50.652;12.216;2022-10-31T11:44:18;19.00;68.30
148;DHT22;142;50.652;12.216;2022-10-31T11:46:48;18.90;68.50
148;DHT22;142;50.652;12.216;2022-10-31T11:49:20;19.00;68.40
148;DHT22;142;50.652;12.216;2022-10-31T11:51:52;19.00;68.80
148;DHT22;142;50.652;12.216;2022-10-31T11:54:23;19.00;68.80
148;DHT22;142;50.652;12.216;2022-10-31T11:56:51;19.10;68.60
148;DHT22;142;50.652;12.216;2022-10-31T11:59:24;19.10;68.70
148;DHT22;142;50.652;12.216;2022-10-31T12:01:52;19.20;68.70
148;DHT22;142;50.652;12.216;2022-10-31T12:04:28;19.30;68.90
148;DHT22;142;50.652;12.216;2022-10-31T12:06:58;19.30;69.20
148;DHT22;142;50.652;12.216;2022-10-31T12:09:28;19.30;69.30
148;DHT22;142;50.652;12.216;2022-10-31T12:12:17;19.40;69.10
148;DHT22;142;50.652;12.216;2022-10-31T12:14:59;19.50;69.10
148;DHT22;142;50.652;12.216;2022-10-31T12:17:34;19.60;69.40
148;DHT22;142;50.652;12.216;2022-10-31T12:20:10;19.70;69.70
148;DHT22;142;50.652;12.216;2022-10-31T12:22:45;19.80;69.70
148;DHT22;142;50.652;12.216;2022-10-31T12:25:28;19.90;69.80
148;DHT22;142;50.652;12.216;2022-10-31T12:28:20;19.90;70.60
148;DHT22;142;50.652;12.216;2022-10-31T12:30:59;19.90;70.80
148;DHT22;142;50.652;12.216;2022-10-31T12:33:53;20.00;71.00
148;DHT22;142;50.652;12.216;2022-10-31T12:36:38;20.00;71.00
148;DHT22;142;50.652;12.216;2022-10-31T12:39:24;20.10;71.20
148;DHT22;142;50.652;12.216;2022-10-31T12:41:54;20.10;71.20
148;DHT22;142;50.652;12.216;2022-10-31T12:44:36;20.20;71.80
148;DHT22;142;50.652;12.216;2022-10-31T12:47:29;20.20;71.80
148;DHT22;142;50.652;12.216;2022-10-31T12:50:08;20.20;71.80
148;DHT22;142;50.652;12.216;2022-10-31T12:52:50;20.20;71.80
148;DHT22;142;50.652;12.216;2022-10-31T12:55:44;20.20;72.00
148;DHT22;142;50.652;12.216;2022-10-31T12:58:17;20.30;72.00
148;DHT22;142;50.652;12.216;2022-10-31T13:00:51;20.30;72.00
148;DHT22;142;50.652;12.216;2022-10-31T13:03:30;20.30;72.00
148;DHT22;142;50.652;12.216;2022-10-31T13:06:07;20.20;72.00
148;DHT22;142;50.652;12.216;2022-10-31T13:08:39;20.20;80.00
148;DHT22;142;50.652;12.216;2022-10-31T13:11:10;20.20;82.50
148;DHT22;142;50.652;12.216;2022-10-31T13:13:41;20.10;83.70
148;DHT22;142;50.652;12.216;2022-10-31T13:16:13;20.10;83.70
148;DHT22;142;50.652;12.216;2022-10-31T13:18:45;20.10;83.70
148;DHT22;142;50.652;12.216;2022-10-31T13:21:25;20.00;83.70
148;DHT22;142;50.652;12.216;2022-10-31T13:23:57;20.00;83.80
148;DHT22;142;50.652;12.216;2022-10-31T13:26:35;20.00;83.50
148;DHT22;142;50.652;12.216;2022-10-31T13:29:12;20.00;83.40
148;DHT22;142;50.652;12.216;2022-10-31T13:31:42;20.00;83.30
148;DHT22;142;50.652;12.216;2022-10-31T13:34:21;20.00;83.30
148;DHT22;142;50.652;12.216;2022-10-31T13:37:01;20.00;83.10
148;DHT22;142;50.652;12.216;2022-10-31T13:39:46;19.90;83.10
148;DHT22;142;50.652;12.216;2022-10-31T13:42:21;19.80;82.70
148;DHT22;142;50.652;12.216;2022-10-31T13:44:50;19.80;82.30
148;DHT22;142;50.652;12.216;2022-10-31T13:47:25;19.70;81.90
148;DHT22;142;50.652;12.216;2022-10-31T13:50:04;19.70;81.60
148;DHT22;142;50.652;12.216;2022-10-31T13:52:31;19.70;81.40
148;DHT22;142;50.652;12.216;2022-10-31T13:54:59;19.60;80.90
148;DHT22;142;50.652;12.216;2022-10-31T13:57:31;19.60;81.00
148;DHT22;142;50.652;12.216;2022-10-31T14:00:00;19.50;80.40
148;DHT22;142;50.652;12.216;2022-10-31T14:02:31;19.50;79.80
148;DHT22;142;50.652;12.216;2022-10-31T14:05:01;19.50;79.50
148;DHT22;142;50.652;12.216;2022-10-31T14:07:30;19.60;79.70
148;DHT22;142;50.652;12.216;2022-10-31T14:10:03;19.60;79.70
148;DHT22;142;50.652;12.216;2022-10-31T14:12:34;19.50;79.20
148;DHT22;142;50.652;12.216;2022-10-31T14:15:19;19.50;78.50
148;DHT22;142;50.652;12.216;2022-10-31T14:17:49;19.50;78.30
148;DHT22;142;50.652;12.216;2022-10-31T14:20:24;19.50;78.60
148;DHT22;142;50.652;12.216;2022-10-31T14:22:52;19.50;78.30
148;DHT22;142;50.652;12.216;2022-10-31T14:25:29;19.50;78.40
148;DHT22;142;50.652;12.216;2022-10-31T14:27:57;19.50;78.20
148;DHT22;142;50.652;12.216;2022-10-31T14:30:25;19.40;77.30
148;DHT22;142;50.652;12.216;2022-10-31T14:32:56;19.30;76.20
148;DHT22;142;50.652;12.216;2022-10-31T14:35:29;19.30;75.20
148;DHT22;142;50.652;12.216;2022-10-31T14:38:09;19.30;74.90
148;DHT22;142;50.652;12.216;2022-10-31T14:40:50;19.30;74.20
148;DHT22;142;50.652;12.216;2022-10-31T14:43:43;19.20;73.00
148;DHT22;142;50.652;12.216;2022-10-31T14:46:18;19.20;72.50
148;DHT22;142;50.652;12.216;2022-10-31T14:49:12;19.10;70.80
148;DHT22;142;50.652;12.216;2022-10-31T14:51:43;19.00;70.00
148;DHT22;142;50.652;12.216;2022-10-31T14:54:14;19.00;68.60
148;DHT22;142;50.652;12.216;2022-10-31T14:56:48;18.90;66.30
148;DHT22;142;50.652;12.216;2022-10-31T14:59:19;18.80;64.80
148;DHT22;142;50.652;12.216;2022-10-31T15:01:55;18.80;64.20
148;DHT22;142;50.652;12.216;2022-10-31T15:04:26;18.70;62.80
148;DHT22;142;50.652;12.216;2022-10-31T15:07:07;18.60;61.40
148;DHT22;142;50.652;12.216;2022-10-31T15:09:37;18.50;61.00
148;DHT22;142;50.652;12.216;2022-10-31T15:12:23;18.50;60.70
148;DHT22;142;50.652;12.216;2022-10-31T15:14:50;18.50;60.70
148;DHT22;142;50.652;12.216;2022-10-31T15:17:17;18.40;60.40
148;DHT22;142;50.652;12.216;2022-10-31T15:19:44;18.40;60.10
148;DHT22;142;50.652;12.216;2022-10-31T15:22:15;18.30;60.10
148;DHT22;142;50.652;12.216;2022-10-31T15:24:42;18.20;59.80
148;DHT22;142;50.652;12.216;2022-10-31T15:27:12;18.10;59.10
148;DHT22;142;50.652;12.216;2022-10-31T15:29:49;18.00;58.90
148;DHT22;142;50.652;12.216;2022-10-31T15:32:20;18.00;58.80
148;DHT22;142;50.652;12.216;2022-10-31T15:34:49;17.90;58.40
148;DHT22;142;50.652;12.216;2022-10-31T15:37:17;17.80;58.00
148;DHT22;142;50.652;12.216;2022-10-31T15:39:46;17.70;57.50
148;DHT22;142;50.652;12.216;2022-10-31T15:42:18;17.60;57.00
148;DHT22;142;50.652;12.216;2022-10-31T15:44:50;17.40;56.50
148;DHT22;142;50.652;12.216;2022-10-31T15:47:19;17.30;56.10
148;DHT22;142;50.652;12.216;2022-10-31T15:49:49;17.20;55.60
148;DHT22;142;50.652;12.216;2022-10-31T15:52:25;17.10;55.30
148;DHT22;142;50.652;12.216;2022-10-31T15:54:55;17.00;55.30
148;DHT22;142;50.652;12.216;2022-10-31T15:57:24;16.90;55.70
148;DHT22;142;50.652;12.216;2022-10-31T15:59:53;16.80;56.00
148;DHT22;142;50.652;12.216;2022-10-31T16:04:52;16.70;56.80
148;DHT22;142;50.652;12.216;2022-10-31T16:07:20;16.70;56.80
148;DHT22;142;50.652;12.216;2022-10-31T16:09:52;16.60;56.70
148;DHT22;142;50.652;12.216;2022-10-31T16:12:20;16.60;56.90
148;DHT22;142;50.652;12.216;2022-10-31T16:14:47;16.50;57.10
148;DHT22;142;50.652;12.216;2022-10-31T16:17:17;16.40;57.60
148;DHT22;142;50.652;12.216;2022-10-31T16:19:52;16.30;58.00
148;DHT22;142;50.652;12.216;2022-10-31T16:22:22;16.30;58.10
148;DHT22;142;50.652;12.216;2022-10-31T16:24:58;16.30;58.10
148;DHT22;142;50.652;12.216;2022-10-31T16:27:28;16.20;58.30
148;DHT22;142;50.652;12.216;2022-10-31T16:29:56;16.10;58.50
148;DHT22;142;50.652;12.216;2022-10-31T16:32:33;16.00;58.40
148;DHT22;142;50.652;12.216;2022-10-31T16:35:16;16.00;58.70
148;DHT22;142;50.652;12.216;2022-10-31T16:37:44;15.90;58.90
148;DHT22;142;50.652;12.216;2022-10-31T16:40:11;15.90;59.00
148;DHT22;142;50.652;12.216;2022-10-31T16:42:39;15.80;59.20
148;DHT22;142;50.652;12.216;2022-10-31T16:45:07;15.80;59.30
148;DHT22;142;50.652;12.216;2022-10-31T16:47:36;15.70;59.30
148;DHT22;142;50.652;12.216;2022-10-31T16:50:14;15.70;59.40
148;DHT22;142;50.652;12.216;2022-10-31T16:52:41;15.60;59.60
148;DHT22;142;50.652;12.216;2022-10-31T16:55:12;15.50;59.90
148;DHT22;142;50.652;12.216;2022-10-31T16:57:42;15.40;60.00
148;DHT22;142;50.652;12.216;2022-10-31T17:00:14;15.40;60.40
148;DHT22;142;50.652;12.216;2022-10-31T17:02:43;15.30;60.70
148;DHT22;142;50.652;12.216;2022-10-31T17:05:12;15.30;60.90
148;DHT22;142;50.652;12.216;2022-10-31T17:07:40;15.30;61.20
148;DHT22;142;50.652;12.216;2022-10-31T17:10:10;15.30;61.30
148;DHT22;142;50.652;12.216;2022-10-31T17:12:38;15.30;61.20
148;DHT22;142;50.652;12.216;2022-10-31T17:15:15;15.20;61.20